Time,TemperatureF,DewpointF,PressureIn,WindDirection,WindDirectionDegrees,WindSpeedMPH,WindSpeedGustMPH,Humidity,HourlyPrecipIn,Conditions,Clouds,dailyrainin,SoftwareType,DateUTC
2013-11-07 00:05:00,48.7,31.8,-100.00,North,-999,0.0,0.0,52,0.00,,,-99.99,FreeWX-Wi 1.01,2013-11-07 05:05:00,
2013-11-07 00:15:00,48.6,31.8,-100.00,North,-999,0.0,0.0,52,0.00,,,-99.99,FreeWX-Wi 1.01,2013-11-07 05:15:00,
2013-11-07 00:25:00,48.6,31.8,-100.00,North,-999,0.0,0.0,52,0.00,,,-99.99,FreeWX-Wi 1.01,2013-11-07 05:25:00,
2013-11-07 00:35:00,48.4,32.0,-100.00,North,-999,0.0,0.0,53,0.00,,,-99.99,FreeWX-Wi 1.01,2013-11-07 05:35:00,
2013-11-07 02:05:00,48.4,32.9,-100.00,North,-999,0.0,0.0,55,0.00,,,-99.99,FreeWX-Wi 1.01,2013-11-07 07:05:00,
2013-11-07 02:15:00,48.4,32.9,-100.00,North,-999,0.0,0.0,55,0.00,,,-99.99,FreeWX-Wi 1.01,2013-11-07 07:15:00,
2013-11-07 02:25:00,48.2,33.3,-100.00,North,-999,0.0,0.0,56,0.00,,,-99.99,FreeWX-Wi 1.01,2013-11-07 07:25:00,
2013-11-07 02:35:00,48.2,33.3,-100.00,North,-999,0.0,0.0,56,0.00,,,-99.99,FreeWX-Wi 1.01,2013-11-07 07:35:00,
2013-11-07 02:44:00,48.2,33.3,-100.00,North,-999,0.0,0.0,56,0.00,,,-99.99,FreeWX-Wi 1.01,2013-11-07 07:44:00,
2013-11-07 02:55:00,48.0,33.4,-100.00,North,-999,0.0,0.0,57,0.00,,,-99.99,FreeWX-Wi 1.01,2013-11-07 07:55:00,
2013-11-07 03:04:00,48.0,34.0,-100.00,North,-999,0.0,0.0,58,0.00,,,-99.99,FreeWX-Wi 1.01,2013-11-07 08:04:00,
2013-11-07 03:14:00,48.2,34.2,-100.00,North,-999,0.0,0.0,58,0.00,,,-99.99,FreeWX-Wi 1.01,2013-11-07 08:14:00,
2013-11-07 03:25:00,48.7,34.7,-100.00,North,-999,0.0,0.0,58,0.00,,,-99.99,FreeWX-Wi 1.01,2013-11-07 08:25:00,
2013-11-07 03:35:00,48.9,35.2,-100.00,North,-999,0.0,0.0,59,0.00,,,-99.99,FreeWX-Wi 1.01,2013-11-07 08:35:00,
2013-11-07 03:45:00,49.1,35.4,-100.00,North,-999,0.0,0.0,59,0.00,,,-99.99,FreeWX-Wi 1.01,2013-11-07 08:45:00,
2013-11-07 03:55:00,49.3,36.0,-100.00,North,-999,0.0,0.0,60,0.00,,,-99.99,FreeWX-Wi 1.01,2013-11-07 08:55:00,
2013-11-07 04:05:00,50.2,36.9,-100.00,North,-999,0.0,0.0,60,0.00,,,-99.99,FreeWX-Wi 1.01,2013-11-07 09:05:00,
2013-11-07 04:15:00,50.9,37.9,-100.00,North,-999,0.0,0.0,61,0.00,,,-99.99,FreeWX-Wi 1.01,2013-11-07 09:15:00,
2013-11-07 04:25:00,51.6,38.7,-100.00,North,-999,0.0,0.0,61,0.00,,,-99.99,FreeWX-Wi 1.01,2013-11-07 09:25:00,
2013-11-07 04:35:00,52.3,39.4,-100.00,North,-999,0.0,0.0,61,0.00,,,-99.99,FreeWX-Wi 1.01,2013-11-07 09:35:00,
2013-11-07 04:45:00,52.9,39.7,-100.00,North,-999,0.0,0.0,61,0.00,,,-99.99,FreeWX-Wi 1.01,2013-11-07 09:45:00,
2013-11-07 04:54:00,53.4,40.3,-100.00,North,-999,0.0,0.0,61,0.00,,,-99.99,FreeWX-Wi 1.01,2013-11-07 09:54:00,
2013-11-07 05:04:00,53.6,40.5,-100.00,North,-999,0.0,0.0,61,0.00,,,-99.99,FreeWX-Wi 1.01,2013-11-07 10:04:00,
2013-11-07 05:14:00,54.0,40.8,-100.00,North,-999,0.0,0.0,61,0.00,,,-99.99,FreeWX-Wi 1.01,2013-11-07 10:14:00,
2013-11-07 05:25:00,54.1,41.0,-100.00,North,-999,0.0,0.0,61,0.00,,,-99.99,FreeWX-Wi 1.01,2013-11-07 10:25:00,
2013-11-07 05:35:00,54.3,41.2,-100.00,North,-999,0.0,0.0,61,0.00,,,-99.99,FreeWX-Wi 1.01,2013-11-07 10:35:00,
2013-11-07 05:45:00,54.5,41.4,-100.00,North,-999,0.0,0.0,61,0.00,,,-99.99,FreeWX-Wi 1.01,2013-11-07 10:45:00,
2013-11-07 05:55:00,54.7,41.5,-100.00,North,-999,0.0,0.0,61,0.00,,,-99.99,FreeWX-Wi 1.01,2013-11-07 10:55:00,
2013-11-07 06:05:00,54.9,41.7,-100.00,North,-999,0.0,0.0,61,0.00,,,-99.99,FreeWX-Wi 1.01,2013-11-07 11:05:00,
2013-11-07 06:15:00,54.9,41.7,-100.00,North,-999,0.0,0.0,61,0.00,,,-99.99,FreeWX-Wi 1.01,2013-11-07 11:15:00,
2013-11-07 06:25:00,54.9,41.7,-100.00,North,-999,0.0,0.0,61,0.00,,,-99.99,FreeWX-Wi 1.01,2013-11-07 11:25:00,
2013-11-07 06:35:00,54.9,41.7,-100.00,North,-999,0.0,0.0,61,0.00,,,-99.99,FreeWX-Wi 1.01,2013-11-07 11:35:00,
2013-11-07 06:44:00,55.0,41.9,-100.00,North,-999,0.0,0.0,61,0.00,,,-99.99,FreeWX-Wi 1.01,2013-11-07 11:44:00,
2013-11-07 06:55:00,55.0,41.9,-100.00,North,-999,0.0,0.0,61,0.00,,,-99.99,FreeWX-Wi 1.01,2013-11-07 11:55:00,
2013-11-07 07:04:00,55.4,42.3,-100.00,North,-999,0.0,0.0,61,0.00,,,-99.99,FreeWX-Wi 1.01,2013-11-07 12:04:00,
2013-11-07 07:15:00,55.4,42.3,-100.00,North,-999,0.0,0.0,61,0.00,,,-99.99,FreeWX-Wi 1.01,2013-11-07 12:15:00,
2013-11-07 07:25:00,55.6,42.3,-100.00,North,-999,0.0,0.0,61,0.00,,,-99.99,FreeWX-Wi 1.01,2013-11-07 12:25:00,
2013-11-07 07:36:00,55.8,42.4,-100.00,North,-999,0.0,0.0,61,0.00,,,-99.99,FreeWX-Wi 1.01,2013-11-07 12:36:00,
2013-11-07 07:46:00,56.1,43.3,-100.00,North,-999,0.0,0.0,62,0.00,,,-99.99,FreeWX-Wi 1.01,2013-11-07 12:46:00,
2013-11-07 07:56:00,56.5,43.2,-100.00,North,-999,0.0,0.0,61,0.00,,,-99.99,FreeWX-Wi 1.01,2013-11-07 12:56:00,
2013-11-07 08:06:00,56.8,43.5,-100.00,North,-999,0.0,0.0,61,0.00,,,-99.99,FreeWX-Wi 1.01,2013-11-07 13:06:00,
2013-11-07 08:15:00,57.4,43.5,-100.00,North,-999,0.0,0.0,60,0.00,,,-99.99,FreeWX-Wi 1.01,2013-11-07 13:15:00,
2013-11-07 08:26:00,58.1,43.3,-100.00,North,-999,0.0,0.0,58,0.00,,,-99.99,FreeWX-Wi 1.01,2013-11-07 13:26:00,
2013-11-07 08:36:00,58.3,42.3,-100.00,North,-999,0.0,0.0,55,0.00,,,-99.99,FreeWX-Wi 1.01,2013-11-07 13:36:00,
2013-11-07 08:46:00,58.6,41.5,-100.00,North,-999,0.0,0.0,53,0.00,,,-99.99,FreeWX-Wi 1.01,2013-11-07 13:46:00,
2013-11-07 08:57:00,59.0,40.8,-100.00,North,-999,0.0,0.0,51,0.00,,,-99.99,FreeWX-Wi 1.01,2013-11-07 13:57:00,
2013-11-07 09:07:00,59.5,40.8,-100.00,North,-999,0.0,0.0,50,0.00,,,-99.99,FreeWX-Wi 1.01,2013-11-07 14:07:00,
2013-11-07 09:17:00,59.9,41.2,-100.00,North,-999,0.0,0.0,50,0.00,,,-99.99,FreeWX-Wi 1.01,2013-11-07 14:17:00,
2013-11-07 09:27:00,60.3,41.0,-100.00,North,-999,0.0,0.0,49,0.00,,,-99.99,FreeWX-Wi 1.01,2013-11-07 14:27:00,
2013-11-07 09:37:00,60.6,40.8,-100.00,North,-999,0.0,0.0,48,0.00,,,-99.99,FreeWX-Wi 1.01,2013-11-07 14:37:00,
2013-11-07 09:47:00,60.6,39.7,-100.00,North,-999,0.0,0.0,46,0.00,,,-99.99,FreeWX-Wi 1.01,2013-11-07 14:47:00,
2013-11-07 09:57:00,60.4,39.0,-100.00,North,-999,0.0,0.0,45,0.00,,,-99.99,FreeWX-Wi 1.01,2013-11-07 14:57:00,
2013-11-07 10:07:00,60.4,37.8,-100.00,North,-999,0.0,0.0,43,0.00,,,-99.99,FreeWX-Wi 1.01,2013-11-07 15:07:00,
2013-11-07 10:17:00,60.4,37.8,-100.00,North,-999,0.0,0.0,43,0.00,,,-99.99,FreeWX-Wi 1.01,2013-11-07 15:17:00,
2013-11-07 10:27:00,60.6,36.9,-100.00,North,-999,0.0,0.0,41,0.00,,,-99.99,FreeWX-Wi 1.01,2013-11-07 15:27:00,
2013-11-07 10:37:00,60.8,37.0,-100.00,North,-999,0.0,0.0,41,0.00,,,-99.99,FreeWX-Wi 1.01,2013-11-07 15:37:00,
2013-11-07 10:46:00,61.2,36.7,-100.00,North,-999,0.0,0.0,40,0.00,,,-99.99,FreeWX-Wi 1.01,2013-11-07 15:46:00,
2013-11-07 10:56:00,61.3,36.1,-100.00,North,-999,0.0,0.0,39,0.00,,,-99.99,FreeWX-Wi 1.01,2013-11-07 15:56:00,
2013-11-07 11:06:00,61.2,36.0,-100.00,North,-999,0.0,0.0,39,0.00,,,-99.99,FreeWX-Wi 1.01,2013-11-07 16:06:00,
2013-11-07 11:16:00,60.8,35.6,-100.00,North,-999,0.0,0.0,39,0.00,,,-99.99,FreeWX-Wi 1.01,2013-11-07 16:16:00,
2013-11-07 11:27:00,60.4,36.0,-100.00,North,-999,0.0,0.0,40,0.00,,,-99.99,FreeWX-Wi 1.01,2013-11-07 16:27:00,
2013-11-07 11:37:00,59.7,36.0,-100.00,North,-999,0.0,0.0,41,0.00,,,-99.99,FreeWX-Wi 1.01,2013-11-07 16:37:00,
2013-11-07 11:47:00,59.0,37.0,-100.00,North,-999,0.0,0.0,44,0.00,,,-99.99,FreeWX-Wi 1.01,2013-11-07 16:47:00,
2013-11-07 11:57:00,58.3,38.7,-100.00,North,-999,0.0,0.0,48,0.00,,,-99.99,FreeWX-Wi 1.01,2013-11-07 16:57:00,
2013-11-07 12:07:00,57.9,38.8,-100.00,North,-999,0.0,0.0,49,0.00,,,-99.99,FreeWX-Wi 1.01,2013-11-07 17:07:00,
2013-11-07 12:17:00,57.4,38.8,-100.00,North,-999,0.0,0.0,50,0.00,,,-99.99,FreeWX-Wi 1.01,2013-11-07 17:17:00,
2013-11-07 12:27:00,56.7,39.2,-100.00,North,-999,0.0,0.0,52,0.00,,,-99.99,FreeWX-Wi 1.01,2013-11-07 17:27:00,
2013-11-07 12:37:00,56.1,38.7,-100.00,North,-999,0.0,0.0,52,0.00,,,-99.99,FreeWX-Wi 1.01,2013-11-07 17:37:00,
2013-11-07 12:46:00,55.8,38.8,-100.00,North,-999,0.0,0.0,53,0.00,,,-99.99,FreeWX-Wi 1.01,2013-11-07 17:46:00,
2013-11-07 12:56:00,55.6,39.2,-100.00,North,-999,0.0,0.0,54,0.00,,,-99.99,FreeWX-Wi 1.01,2013-11-07 17:56:00,
2013-11-07 13:07:00,55.4,39.0,-100.00,North,-999,0.0,0.0,54,0.00,,,-99.99,FreeWX-Wi 1.01,2013-11-07 18:07:00,
2013-11-07 13:16:00,55.2,39.7,-100.00,North,-999,0.0,0.0,56,0.00,,,-99.99,FreeWX-Wi 1.01,2013-11-07 18:16:00,
2013-11-07 13:27:00,54.9,39.9,-100.00,North,-999,0.0,0.0,57,0.00,,,-99.99,FreeWX-Wi 1.01,2013-11-07 18:27:00,
2013-11-07 13:36:00,54.9,39.9,-100.00,North,-999,0.0,0.0,57,0.00,,,-99.99,FreeWX-Wi 1.01,2013-11-07 18:36:00,
2013-11-07 13:46:00,54.5,40.1,-100.00,North,-999,0.0,0.0,58,0.00,,,-99.99,FreeWX-Wi 1.01,2013-11-07 18:46:00,
2013-11-07 13:57:00,54.3,39.9,-100.00,North,-999,0.0,0.0,58,0.00,,,-99.99,FreeWX-Wi 1.01,2013-11-07 18:57:00,
2013-11-07 14:06:00,53.6,39.2,-100.00,North,-999,0.0,0.0,58,0.00,,,-99.99,FreeWX-Wi 1.01,2013-11-07 19:06:00,
2013-11-07 14:17:00,53.1,38.7,-100.00,North,-999,0.0,0.0,58,0.00,,,-99.99,FreeWX-Wi 1.01,2013-11-07 19:17:00,
2013-11-07 14:27:00,52.7,38.3,-100.00,North,-999,0.0,0.0,58,0.00,,,-99.99,FreeWX-Wi 1.01,2013-11-07 19:27:00,
2013-11-07 14:37:00,52.2,37.8,-100.00,North,-999,0.0,0.0,58,0.00,,,-99.99,FreeWX-Wi 1.01,2013-11-07 19:37:00,
2013-11-07 14:47:00,51.8,37.6,-100.00,North,-999,0.0,0.0,58,0.00,,,-99.99,FreeWX-Wi 1.01,2013-11-07 19:47:00,
2013-11-07 14:57:00,51.6,37.8,-100.00,North,-999,0.0,0.0,59,0.00,,,-99.99,FreeWX-Wi 1.01,2013-11-07 19:57:00,
2013-11-07 15:07:00,51.3,37.4,-100.00,North,-999,0.0,0.0,59,0.00,,,-99.99,FreeWX-Wi 1.01,2013-11-07 20:07:00,
2013-11-07 15:17:00,51.3,37.9,-100.00,North,-999,0.0,0.0,60,0.00,,,-99.99,FreeWX-Wi 1.01,2013-11-07 20:17:00,
2013-11-07 15:26:00,51.1,37.8,-100.00,North,-999,0.0,0.0,60,0.00,,,-99.99,FreeWX-Wi 1.01,2013-11-07 20:26:00,
2013-11-07 15:37:00,50.9,37.6,-100.00,North,-999,0.0,0.0,60,0.00,,,-99.99,FreeWX-Wi 1.01,2013-11-07 20:37:00,
2013-11-07 15:47:00,50.5,37.2,-100.00,North,-999,0.0,0.0,60,0.00,,,-99.99,FreeWX-Wi 1.01,2013-11-07 20:47:00,
2013-11-07 15:57:00,49.8,36.9,-100.00,North,-999,0.0,0.0,61,0.00,,,-99.99,FreeWX-Wi 1.01,2013-11-07 20:57:00,
2013-11-07 16:07:00,49.3,35.6,-100.00,North,-999,0.0,0.0,59,0.00,,,-99.99,FreeWX-Wi 1.01,2013-11-07 21:07:00,
2013-11-07 16:17:00,48.7,35.1,-100.00,North,-999,0.0,0.0,59,0.00,,,-99.99,FreeWX-Wi 1.01,2013-11-07 21:17:00,
2013-11-07 16:27:00,48.6,34.9,-100.00,North,-999,0.0,0.0,59,0.00,,,-99.99,FreeWX-Wi 1.01,2013-11-07 21:27:00,
2013-11-07 16:37:00,48.4,34.7,-100.00,North,-999,0.0,0.0,59,0.00,,,-99.99,FreeWX-Wi 1.01,2013-11-07 21:37:00,
2013-11-07 16:47:00,48.0,34.3,-100.00,North,-999,0.0,0.0,59,0.00,,,-99.99,FreeWX-Wi 1.01,2013-11-07 21:47:00,
2013-11-07 16:58:00,47.8,34.2,-100.00,North,-999,0.0,0.0,59,0.00,,,-99.99,FreeWX-Wi 1.01,2013-11-07 21:58:00,
2013-11-07 17:08:00,47.5,33.8,-100.00,North,-999,0.0,0.0,59,0.00,,,-99.99,FreeWX-Wi 1.01,2013-11-07 22:08:00,
2013-11-07 17:17:00,46.9,33.4,-100.00,North,-999,0.0,0.0,59,0.00,,,-99.99,FreeWX-Wi 1.01,2013-11-07 22:17:00,
2013-11-07 17:28:00,46.6,33.1,-100.00,North,-999,0.0,0.0,59,0.00,,,-99.99,FreeWX-Wi 1.01,2013-11-07 22:28:00,
2013-11-07 17:38:00,46.2,32.7,-100.00,North,-999,0.0,0.0,59,0.00,,,-99.99,FreeWX-Wi 1.01,2013-11-07 22:38:00,
2013-11-07 17:48:00,45.9,32.4,-100.00,North,-999,0.0,0.0,59,0.00,,,-99.99,FreeWX-Wi 1.01,2013-11-07 22:48:00,
2013-11-07 17:58:00,45.5,32.0,-100.00,North,-999,0.0,0.0,59,0.00,,,-99.99,FreeWX-Wi 1.01,2013-11-07 22:58:00,
2013-11-07 18:08:00,45.3,31.8,-100.00,North,-999,0.0,0.0,59,0.00,,,-99.99,FreeWX-Wi 1.01,2013-11-07 23:08:00,
2013-11-07 18:18:00,45.1,31.6,-100.00,North,-999,0.0,0.0,59,0.00,,,-99.99,FreeWX-Wi 1.01,2013-11-07 23:18:00,
2013-11-07 18:28:00,45.0,31.5,-100.00,North,-999,0.0,0.0,59,0.00,,,-99.99,FreeWX-Wi 1.01,2013-11-07 23:28:00,
2013-11-07 18:38:00,44.6,31.1,-100.00,North,-999,0.0,0.0,59,0.00,,,-99.99,FreeWX-Wi 1.01,2013-11-07 23:38:00,
2013-11-07 18:48:00,44.4,30.9,-100.00,North,-999,0.0,0.0,59,0.00,,,-99.99,FreeWX-Wi 1.01,2013-11-07 23:48:00,
2013-11-07 18:58:00,44.1,30.7,-100.00,North,-999,0.0,0.0,59,0.00,,,-99.99,FreeWX-Wi 1.01,2013-11-07 23:58:00,
2013-11-07 19:08:00,43.7,30.4,-100.00,North,-999,0.0,0.0,59,0.00,,,-99.99,FreeWX-Wi 1.01,2013-11-08 00:08:00,
2013-11-07 19:18:00,43.5,30.2,-100.00,North,-999,0.0,0.0,59,0.00,,,-99.99,FreeWX-Wi 1.01,2013-11-08 00:18:00,
2013-11-07 19:28:00,43.3,30.0,-100.00,North,-999,0.0,0.0,59,0.00,,,-99.99,FreeWX-Wi 1.01,2013-11-08 00:28:00,
2013-11-07 19:37:00,43.0,29.7,-100.00,North,-999,0.0,0.0,59,0.00,,,-99.99,FreeWX-Wi 1.01,2013-11-08 00:37:00,
2013-11-07 19:48:00,42.8,29.5,-100.00,North,-999,0.0,0.0,59,0.00,,,-99.99,FreeWX-Wi 1.01,2013-11-08 00:48:00,
2013-11-07 19:58:00,42.4,29.5,-100.00,North,-999,0.0,0.0,60,0.00,,,-99.99,FreeWX-Wi 1.01,2013-11-08 00:58:00,
2013-11-07 20:08:00,42.6,30.2,-100.00,North,-999,0.0,0.0,61,0.00,,,-99.99,FreeWX-Wi 1.01,2013-11-08 01:08:00,
2013-11-07 20:17:00,42.4,30.0,-100.00,North,-999,0.0,0.0,61,0.00,,,-99.99,FreeWX-Wi 1.01,2013-11-08 01:17:00,
2013-11-07 20:28:00,41.9,29.1,-100.00,North,-999,0.0,0.0,60,0.00,,,-99.99,FreeWX-Wi 1.01,2013-11-08 01:28:00,
2013-11-07 20:38:00,41.4,28.0,-100.00,North,-999,0.0,0.0,59,0.00,,,-99.99,FreeWX-Wi 1.01,2013-11-08 01:38:00,
2013-11-07 20:47:00,40.8,26.8,-100.00,North,-999,0.0,0.0,57,0.00,,,-99.99,FreeWX-Wi 1.01,2013-11-08 01:47:00,
2013-11-07 20:58:00,40.5,26.4,-100.00,North,-999,0.0,0.0,57,0.00,,,-99.99,FreeWX-Wi 1.01,2013-11-08 01:58:00,
2013-11-07 21:08:00,40.1,25.7,-100.00,North,-999,0.0,0.0,56,0.00,,,-99.99,FreeWX-Wi 1.01,2013-11-08 02:08:00,
2013-11-07 21:18:00,39.7,25.0,-100.00,North,-999,0.0,0.0,55,0.00,,,-99.99,FreeWX-Wi 1.01,2013-11-08 02:18:00,
2013-11-07 21:28:00,39.7,24.4,-100.00,North,-999,0.0,0.0,54,0.00,,,-99.99,FreeWX-Wi 1.01,2013-11-08 02:28:00,
2013-11-07 21:38:00,39.4,24.1,-100.00,North,-999,0.0,0.0,54,0.00,,,-99.99,FreeWX-Wi 1.01,2013-11-08 02:38:00,
2013-11-07 21:48:00,39.0,23.7,-100.00,North,-999,0.0,0.0,54,0.00,,,-99.99,FreeWX-Wi 1.01,2013-11-08 02:48:00,
2013-11-07 22:08:00,38.5,23.4,-100.00,North,-999,0.0,0.0,54,0.00,,,-99.99,FreeWX-Wi 1.01,2013-11-08 03:08:00,
2013-11-07 22:18:00,38.5,22.8,-100.00,North,-999,0.0,0.0,53,0.00,,,-99.99,FreeWX-Wi 1.01,2013-11-08 03:18:00,
2013-11-07 22:27:00,38.3,22.6,-100.00,North,-999,0.0,0.0,53,0.00,,,-99.99,FreeWX-Wi 1.01,2013-11-08 03:27:00,
2013-11-07 22:38:00,37.9,22.3,-100.00,North,-999,0.0,0.0,53,0.00,,,-99.99,FreeWX-Wi 1.01,2013-11-08 03:38:00,
2013-11-07 22:48:00,37.6,22.1,-100.00,North,-999,0.0,0.0,53,0.00,,,-99.99,FreeWX-Wi 1.01,2013-11-08 03:48:00,
2013-11-07 22:58:00,37.2,22.1,-100.00,North,-999,0.0,0.0,54,0.00,,,-99.99,FreeWX-Wi 1.01,2013-11-08 03:58:00,
2013-11-07 23:08:00,36.9,21.7,-100.00,North,-999,0.0,0.0,54,0.00,,,-99.99,FreeWX-Wi 1.01,2013-11-08 04:08:00,
2013-11-07 23:17:00,36.5,21.4,-100.00,North,-999,0.0,0.0,54,0.00,,,-99.99,FreeWX-Wi 1.01,2013-11-08 04:17:00,
2013-11-07 23:27:00,36.0,21.0,-100.00,North,-999,0.0,0.0,54,0.00,,,-99.99,FreeWX-Wi 1.01,2013-11-08 04:27:00,
2013-11-07 23:38:00,35.8,20.8,-100.00,North,-999,0.0,0.0,54,0.00,,,-99.99,FreeWX-Wi 1.01,2013-11-08 04:38:00,
2013-11-07 23:48:00,35.4,20.8,-100.00,North,-999,0.0,0.0,55,0.00,,,-99.99,FreeWX-Wi 1.01,2013-11-08 04:48:00,